createdAt,value
2023-01-05T08:06:07.383Z,48.13
2023-01-05T08:08:35.505Z,45.10
2023-01-05T08:11:05.660Z,41.57
2023-01-05T08:13:51.538Z,49.07
2023-01-05T08:16:19.746Z,41.00
2023-01-05T08:18:48.139Z,37.90
2023-01-05T08:21:17.721Z,38.70
2023-01-05T08:23:46.225Z,37.10
2023-01-05T08:26:16.957Z,37.27
2023-01-05T08:28:45.509Z,44.77
2023-01-05T08:31:15.402Z,36.87
2023-01-05T08:33:43.981Z,40.93
2023-01-05T08:36:13.837Z,42.50
2023-01-05T08:38:48.207Z,42.33
2023-01-05T08:41:18.104Z,38.37
2023-01-05T08:43:50.407Z,43.50
2023-01-05T08:46:18.738Z,39.97
2023-01-05T08:48:49.937Z,37.37
2023-01-05T08:51:18.229Z,40.90
2023-01-05T08:53:48.059Z,36.47
2023-01-05T08:56:16.592Z,37.97
2023-01-05T08:58:45.271Z,38.87
2023-01-05T09:01:15.497Z,39.37
2023-01-05T09:03:44.290Z,39.53
2023-01-05T09:06:13.853Z,39.87
2023-01-05T09:08:43.487Z,36.60
2023-01-05T09:11:14.831Z,34.10
2023-01-05T09:13:46.246Z,43.87
2023-01-05T09:16:21.405Z,37.33
2023-01-05T09:19:04.519Z,32.53
2023-01-05T09:21:32.602Z,39.47
2023-01-05T09:24:00.673Z,29.63
2023-01-05T09:26:30.079Z,43.97
2023-01-05T09:28:58.128Z,37.37
2023-01-05T09:31:26.401Z,39.00
2023-01-05T09:33:54.443Z,32.77
2023-01-05T09:36:22.537Z,39.13
2023-01-05T09:38:51.484Z,44.83
2023-01-05T09:41:24.647Z,43.57
2023-01-05T09:43:57.636Z,43.60
2023-01-05T09:46:30.896Z,46.33
2023-01-05T09:49:11.838Z,36.97
2023-01-05T09:51:39.899Z,42.30
2023-01-05T09:54:08.417Z,45.33
2023-01-05T09:57:08.424Z,39.13
2023-01-05T09:59:32.731Z,47.67
2023-01-05T10:02:04.597Z,41.37
2023-01-05T10:04:35.382Z,40.80
2023-01-05T10:07:08.618Z,41.60
2023-01-05T10:09:39.377Z,47.93
2023-01-05T10:12:35.221Z,37.33
2023-01-05T10:15:09.327Z,49.30
2023-01-05T10:17:42.396Z,34.27
2023-01-05T10:20:17.253Z,45.33
2023-01-05T10:22:53.945Z,40.60
2023-01-05T10:25:30.483Z,39.17
2023-01-05T10:28:07.970Z,51.47
2023-01-05T10:30:49.543Z,42.13
2023-01-05T10:33:29.473Z,38.80
2023-01-05T10:36:19.352Z,43.67
2023-01-05T10:39:03.583Z,45.30
2023-01-05T10:41:38.657Z,41.33
2023-01-05T10:44:35.906Z,43.17
2023-01-05T10:47:09.546Z,34.80
2023-01-05T10:49:38.456Z,38.07
2023-01-05T10:52:13.122Z,38.73
2023-01-05T10:54:44.788Z,201.70
2023-01-05T10:57:35.717Z,80.17
2023-01-05T11:00:09.629Z,88.93
2023-01-05T11:02:41.491Z,50.57
2023-01-05T11:05:31.787Z,34.20
2023-01-05T11:08:02.306Z,41.17
2023-01-05T11:10:34.527Z,39.17
2023-01-05T11:13:05.519Z,43.03
2023-01-05T11:15:40.887Z,33.40
2023-01-05T11:18:25.977Z,39.27
2023-01-05T11:21:11.804Z,43.50
2023-01-05T11:23:42.720Z,51.27
2023-01-05T11:26:29.495Z,47.10
2023-01-05T11:29:15.179Z,48.00
2023-01-05T11:31:47.378Z,40.13
2023-01-05T11:34:29.985Z,36.73
2023-01-05T11:37:05.636Z,37.53
2023-01-05T11:39:40.119Z,43.13
2023-01-05T11:42:20.287Z,46.67
2023-01-05T11:44:54.290Z,45.47
2023-01-05T11:47:27.258Z,50.90
2023-01-05T11:50:09.501Z,52.63
2023-01-05T11:52:40.039Z,48.53
2023-01-05T11:55:33.958Z,37.40
2023-01-05T11:58:24.419Z,49.63
2023-01-05T12:01:13.987Z,45.87
2023-01-05T12:04:02.264Z,38.17
2023-01-05T12:06:54.218Z,45.53
2023-01-05T12:09:34.350Z,50.67
2023-01-05T12:12:18.894Z,51.27
2023-01-05T12:15:00.208Z,45.17
2023-01-05T12:17:34.948Z,48.30
2023-01-05T12:20:20.021Z,39.47
2023-01-05T12:23:28.921Z,40.17
2023-01-05T12:26:04.411Z,43.13
2023-01-05T12:29:45.157Z,47.63
2023-01-05T12:33:44.470Z,45.97
2023-01-05T12:35:04.057Z,40.07
2023-01-05T12:37:45.823Z,50.43
2023-01-05T12:40:38.634Z,49.37
2023-01-05T12:43:10.880Z,40.23
2023-01-05T12:46:04.867Z,32.03
2023-01-05T12:48:38.230Z,35.57
2023-01-05T12:51:14.572Z,31.37
2023-01-05T12:53:51.372Z,23.60
2023-01-05T12:56:27.500Z,23.30
2023-01-05T12:59:13.350Z,16.33
2023-01-05T13:01:46.670Z,14.20
2023-01-05T13:04:41.398Z,11.57
2023-01-05T13:07:25.536Z,7.53
2023-01-05T13:10:02.924Z,9.47
2023-01-05T13:12:35.027Z,6.60
2023-01-05T13:15:15.383Z,4.73
2023-01-05T13:17:47.924Z,5.33
2023-01-05T13:20:37.134Z,5.07
2023-01-05T13:23:08.904Z,4.93
2023-01-05T13:25:46.595Z,5.60
2023-01-05T13:28:21.826Z,3.93
2023-01-05T13:31:18.716Z,4.00
2023-01-05T13:34:06.055Z,4.23
2023-01-05T13:36:49.228Z,3.40
2023-01-05T13:39:35.689Z,5.77
2023-01-05T13:42:29.521Z,4.90
2023-01-05T13:45:22.795Z,3.83
2023-01-05T13:51:28.528Z,3.70
2023-01-05T13:53:59.326Z,3.23
2023-01-05T13:56:30.147Z,5.40
2023-01-05T13:59:07.172Z,3.87
2023-01-05T14:01:44.525Z,3.80
2023-01-05T14:04:19.868Z,4.97
2023-01-05T14:06:49.833Z,3.50
2023-01-05T14:09:28.256Z,5.70
2023-01-05T14:12:25.935Z,5.67
2023-01-05T14:15:04.653Z,4.23
2023-01-05T14:24:27.379Z,6.07
2023-01-05T14:27:04.869Z,5.97
2023-01-05T14:30:00.720Z,4.53
2023-01-05T14:32:30.547Z,4.60
2023-01-05T14:35:04.094Z,5.20
2023-01-05T14:55:37.124Z,5.87
2023-01-05T14:58:11.716Z,6.67
